sensor_id;sensor_type;location;lat;lon;timestamp;temperature;humidity
816;DHT22;25928;51.062;13.752;2023-05-27T00:01:17;14.60;99.90
816;DHT22;25928;51.062;13.752;2023-05-27T00:03:44;14.60;99.90
816;DHT22;25928;51.062;13.752;2023-05-27T00:06:10;14.60;99.90
816;DHT22;25928;51.062;13.752;2023-05-27T00:08:36;14.60;99.90
816;DHT22;25928;51.062;13.752;2023-05-27T00:11:01;14.50;99.90
816;DHT22;25928;51.062;13.752;2023-05-27T00:13:27;14.50;99.90
816;DHT22;25928;51.062;13.752;2023-05-27T00:15:52;14.40;99.90
816;DHT22;25928;51.062;13.752;2023-05-27T00:18:18;14.30;99.90
816;DHT22;25928;51.062;13.752;2023-05-27T00:20:43;14.20;99.90
816;DHT22;25928;51.062;13.752;2023-05-27T00:23:09;14.00;99.90
816;DHT22;25928;51.062;13.752;2023-05-27T00:25:35;14.00;99.90
816;DHT22;25928;51.062;13.752;2023-05-27T00:28:01;14.00;99.90
816;DHT22;25928;51.062;13.752;2023-05-27T00:30:27;14.10;99.90
816;DHT22;25928;51.062;13.752;2023-05-27T00:32:52;14.00;99.90
816;DHT22;25928;51.062;13.752;2023-05-27T00:35:18;14.00;99.90
816;DHT22;25928;51.062;13.752;2023-05-27T00:37:44;13.80;99.90
816;DHT22;25928;51.062;13.752;2023-05-27T00:40:11;13.90;99.90
816;DHT22;25928;51.062;13.752;2023-05-27T00:42:36;14.00;99.90
816;DHT22;25928;51.062;13.752;2023-05-27T00:45:03;13.90;99.90
816;DHT22;25928;51.062;13.752;2023-05-27T00:47:30;13.80;99.90
816;DHT22;25928;51.062;13.752;2023-05-27T00:49:56;13.80;99.90
816;DHT22;25928;51.062;13.752;2023-05-27T00:52:24;13.80;99.90
816;DHT22;25928;51.062;13.752;2023-05-27T00:54:51;14.40;99.90
816;DHT22;25928;51.062;13.752;2023-05-27T00:57:17;13.70;99.90
816;DHT22;25928;51.062;13.752;2023-05-27T00:59:43;13.80;99.90
816;DHT22;25928;51.062;13.752;2023-05-27T01:02:08;13.80;99.90
816;DHT22;25928;51.062;13.752;2023-05-27T01:04:34;14.00;99.90
816;DHT22;25928;51.062;13.752;2023-05-27T01:07:14;13.90;99.90
816;DHT22;25928;51.062;13.752;2023-05-27T01:12:37;13.70;99.90
816;DHT22;25928;51.062;13.752;2023-05-27T01:15:06;13.50;99.90
816;DHT22;25928;51.062;13.752;2023-05-27T01:17:33;13.60;99.90
816;DHT22;25928;51.062;13.752;2023-05-27T01:20:12;13.60;99.90
816;DHT22;25928;51.062;13.752;2023-05-27T01:22:40;13.60;99.90
816;DHT22;25928;51.062;13.752;2023-05-27T01:25:08;13.60;99.90
816;DHT22;25928;51.062;13.752;2023-05-27T01:27:34;13.50;99.90
816;DHT22;25928;51.062;13.752;2023-05-27T01:30:00;13.60;99.90
816;DHT22;25928;51.062;13.752;2023-05-27T01:32:44;13.50;99.90
816;DHT22;25928;51.062;13.752;2023-05-27T01:35:24;13.50;99.90
816;DHT22;25928;51.062;13.752;2023-05-27T01:37:54;13.50;99.90
816;DHT22;25928;51.062;13.752;2023-05-27T01:40:21;13.50;99.90
816;DHT22;25928;51.062;13.752;2023-05-27T01:42:48;13.50;99.90
816;DHT22;25928;51.062;13.752;2023-05-27T01:45:14;13.50;99.90
816;DHT22;25928;51.062;13.752;2023-05-27T01:47:40;13.50;99.90
816;DHT22;25928;51.062;13.752;2023-05-27T01:50:08;13.40;99.90
816;DHT22;25928;51.062;13.752;2023-05-27T01:52:33;13.30;99.90
816;DHT22;25928;51.062;13.752;2023-05-27T01:54:59;13.30;99.90
816;DHT22;25928;51.062;13.752;2023-05-27T01:57:25;13.30;99.90
816;DHT22;25928;51.062;13.752;2023-05-27T01:59:51;13.10;99.90
816;DHT22;25928;51.062;13.752;2023-05-27T02:02:16;13.10;99.90
816;DHT22;25928;51.062;13.752;2023-05-27T02:04:42;13.10;99.90
816;DHT22;25928;51.062;13.752;2023-05-27T02:07:07;13.10;99.90
816;DHT22;25928;51.062;13.752;2023-05-27T02:09:33;13.10;99.90
816;DHT22;25928;51.062;13.752;2023-05-27T02:11:59;13.10;99.90
816;DHT22;25928;51.062;13.752;2023-05-27T02:14:24;13.00;99.90
816;DHT22;25928;51.062;13.752;2023-05-27T02:16:50;12.90;99.90
816;DHT22;25928;51.062;13.752;2023-05-27T02:19:16;12.80;99.90
816;DHT22;25928;51.062;13.752;2023-05-27T02:21:42;12.80;99.90
816;DHT22;25928;51.062;13.752;2023-05-27T02:24:08;12.70;1.00
816;DHT22;25928;51.062;13.752;2023-05-27T02:26:34;12.80;1.00
816;DHT22;25928;51.062;13.752;2023-05-27T02:29:00;12.80;99.90
816;DHT22;25928;51.062;13.752;2023-05-27T02:31:25;12.70;99.90
816;DHT22;25928;51.062;13.752;2023-05-27T02:33:51;12.60;1.00
816;DHT22;25928;51.062;13.752;2023-05-27T02:36:17;12.50;1.00
816;DHT22;25928;51.062;13.752;2023-05-27T02:38:43;12.50;1.00
816;DHT22;25928;51.062;13.752;2023-05-27T02:41:09;12.50;1.00
816;DHT22;25928;51.062;13.752;2023-05-27T02:43:35;12.40;1.00
816;DHT22;25928;51.062;13.752;2023-05-27T02:46:01;12.40;1.00
816;DHT22;25928;51.062;13.752;2023-05-27T02:48:26;12.40;1.00
816;DHT22;25928;51.062;13.752;2023-05-27T02:50:52;12.30;1.00
816;DHT22;25928;51.062;13.752;2023-05-27T02:53:18;12.40;1.00
816;DHT22;25928;51.062;13.752;2023-05-27T02:55:43;12.40;1.00
816;DHT22;25928;51.062;13.752;2023-05-27T02:58:09;12.40;1.00
816;DHT22;25928;51.062;13.752;2023-05-27T03:00:35;12.50;1.00
816;DHT22;25928;51.062;13.752;2023-05-27T03:03:00;12.40;1.00
816;DHT22;25928;51.062;13.752;2023-05-27T03:05:29;12.50;1.00
816;DHT22;25928;51.062;13.752;2023-05-27T03:07:54;12.40;1.00
816;DHT22;25928;51.062;13.752;2023-05-27T03:10:20;12.40;1.00
816;DHT22;25928;51.062;13.752;2023-05-27T03:12:46;12.30;1.00
816;DHT22;25928;51.062;13.752;2023-05-27T03:15:11;12.30;1.00
816;DHT22;25928;51.062;13.752;2023-05-27T03:17:37;12.40;1.00
816;DHT22;25928;51.062;13.752;2023-05-27T03:20:03;12.50;1.00
816;DHT22;25928;51.062;13.752;2023-05-27T03:22:31;12.50;1.00
816;DHT22;25928;51.062;13.752;2023-05-27T03:24:56;12.50;1.00
816;DHT22;25928;51.062;13.752;2023-05-27T03:27:22;12.60;1.00
816;DHT22;25928;51.062;13.752;2023-05-27T03:29:48;12.50;1.00
816;DHT22;25928;51.062;13.752;2023-05-27T03:32:14;12.70;1.00
816;DHT22;25928;51.062;13.752;2023-05-27T03:34:40;12.70;1.00
816;DHT22;25928;51.062;13.752;2023-05-27T03:37:05;12.70;1.00
816;DHT22;25928;51.062;13.752;2023-05-27T03:39:31;12.70;1.00
816;DHT22;25928;51.062;13.752;2023-05-27T03:41:57;12.50;1.00
816;DHT22;25928;51.062;13.752;2023-05-27T03:44:23;12.40;1.00
816;DHT22;25928;51.062;13.752;2023-05-27T03:46:48;12.40;1.00
816;DHT22;25928;51.062;13.752;2023-05-27T03:49:14;12.40;1.00
816;DHT22;25928;51.062;13.752;2023-05-27T03:51:40;12.40;1.00
816;DHT22;25928;51.062;13.752;2023-05-27T03:54:05;12.60;1.00
816;DHT22;25928;51.062;13.752;2023-05-27T03:56:31;12.60;1.00
816;DHT22;25928;51.062;13.752;2023-05-27T03:58:57;12.60;1.00
816;DHT22;25928;51.062;13.752;2023-05-27T04:01:22;12.50;1.00
816;DHT22;25928;51.062;13.752;2023-05-27T04:03:49;12.50;1.00
816;DHT22;25928;51.062;13.752;2023-05-27T04:06:14;12.50;1.00
816;DHT22;25928;51.062;13.752;2023-05-27T04:08:41;12.50;1.00
816;DHT22;25928;51.062;13.752;2023-05-27T04:11:10;12.50;1.00
816;DHT22;25928;51.062;13.752;2023-05-27T04:13:37;12.50;1.00
816;DHT22;25928;51.062;13.752;2023-05-27T04:16:03;12.60;1.00
816;DHT22;25928;51.062;13.752;2023-05-27T04:18:29;12.60;1.00
816;DHT22;25928;51.062;13.752;2023-05-27T04:20:54;12.50;1.00
816;DHT22;25928;51.062;13.752;2023-05-27T04:23:20;12.60;1.00
816;DHT22;25928;51.062;13.752;2023-05-27T04:25:46;12.70;1.00
816;DHT22;25928;51.062;13.752;2023-05-27T04:28:13;12.70;1.00
816;DHT22;25928;51.062;13.752;2023-05-27T04:30:41;12.70;1.00
816;DHT22;25928;51.062;13.752;2023-05-27T04:33:07;12.80;1.00
816;DHT22;25928;51.062;13.752;2023-05-27T04:35:33;12.80;1.00
816;DHT22;25928;51.062;13.752;2023-05-27T04:37:59;12.70;1.00
816;DHT22;25928;51.062;13.752;2023-05-27T04:40:27;12.70;1.00
816;DHT22;25928;51.062;13.752;2023-05-27T04:42:54;12.80;1.00
816;DHT22;25928;51.062;13.752;2023-05-27T04:45:20;13.00;1.00
816;DHT22;25928;51.062;13.752;2023-05-27T04:47:45;13.20;1.00
816;DHT22;25928;51.062;13.752;2023-05-27T04:50:14;13.30;1.00
816;DHT22;25928;51.062;13.752;2023-05-27T04:52:40;13.40;1.00
816;DHT22;25928;51.062;13.752;2023-05-27T04:55:09;13.50;1.00
816;DHT22;25928;51.062;13.752;2023-05-27T04:57:35;13.60;1.00
816;DHT22;25928;51.062;13.752;2023-05-27T05:00:04;13.60;1.00
816;DHT22;25928;51.062;13.752;2023-05-27T05:02:30;13.60;1.00
816;DHT22;25928;51.062;13.752;2023-05-27T05:05:07;13.60;1.00
816;DHT22;25928;51.062;13.752;2023-05-27T05:07:40;13.50;1.00
816;DHT22;25928;51.062;13.752;2023-05-27T05:10:07;13.50;1.00
816;DHT22;25928;51.062;13.752;2023-05-27T05:12:33;13.60;1.00
816;DHT22;25928;51.062;13.752;2023-05-27T05:14:59;13.70;1.00
816;DHT22;25928;51.062;13.752;2023-05-27T05:17:25;13.90;1.00
816;DHT22;25928;51.062;13.752;2023-05-27T05:19:51;14.00;1.00
816;DHT22;25928;51.062;13.752;2023-05-27T05:22:17;14.10;1.00
816;DHT22;25928;51.062;13.752;2023-05-27T05:24:49;14.40;99.90
816;DHT22;25928;51.062;13.752;2023-05-27T05:27:15;14.50;99.90
816;DHT22;25928;51.062;13.752;2023-05-27T05:29:40;14.60;99.90
816;DHT22;25928;51.062;13.752;2023-05-27T05:32:09;14.70;99.90
816;DHT22;25928;51.062;13.752;2023-05-27T05:34:38;14.80;99.90
816;DHT22;25928;51.062;13.752;2023-05-27T05:37:04;14.90;99.90
816;DHT22;25928;51.062;13.752;2023-05-27T05:39:30;15.10;99.90
816;DHT22;25928;51.062;13.752;2023-05-27T05:41:56;15.20;99.90
816;DHT22;25928;51.062;13.752;2023-05-27T05:44:23;15.20;99.90
816;DHT22;25928;51.062;13.752;2023-05-27T05:46:48;14.90;99.90
816;DHT22;25928;51.062;13.752;2023-05-27T05:49:14;14.90;99.90
816;DHT22;25928;51.062;13.752;2023-05-27T05:51:40;15.00;99.90
816;DHT22;25928;51.062;13.752;2023-05-27T05:54:06;15.10;99.90
816;DHT22;25928;51.062;13.752;2023-05-27T05:56:32;15.30;99.90
816;DHT22;25928;51.062;13.752;2023-05-27T05:58:58;15.90;99.90
816;DHT22;25928;51.062;13.752;2023-05-27T06:01:24;15.60;99.90
816;DHT22;25928;51.062;13.752;2023-05-27T06:03:52;15.80;99.90
816;DHT22;25928;51.062;13.752;2023-05-27T06:06:18;15.90;99.90
816;DHT22;25928;51.062;13.752;2023-05-27T06:08:44;16.00;99.90
816;DHT22;25928;51.062;13.752;2023-05-27T06:11:11;16.10;99.90
816;DHT22;25928;51.062;13.752;2023-05-27T06:13:36;16.30;99.90
816;DHT22;25928;51.062;13.752;2023-05-27T06:16:02;16.50;99.90
816;DHT22;25928;51.062;13.752;2023-05-27T06:18:28;16.10;99.90
816;DHT22;25928;51.062;13.752;2023-05-27T06:20:53;16.20;99.90
816;DHT22;25928;51.062;13.752;2023-05-27T06:23:19;16.20;99.90
816;DHT22;25928;51.062;13.752;2023-05-27T06:25:45;16.40;99.90
816;DHT22;25928;51.062;13.752;2023-05-27T06:28:10;16.60;99.90
816;DHT22;25928;51.062;13.752;2023-05-27T06:30:36;16.70;99.90
816;DHT22;25928;51.062;13.752;2023-05-27T06:33:02;16.60;99.90
816;DHT22;25928;51.062;13.752;2023-05-27T06:35:28;17.10;99.90
816;DHT22;25928;51.062;13.752;2023-05-27T06:37:54;16.60;99.90
816;DHT22;25928;51.062;13.752;2023-05-27T06:40:20;16.60;99.90
816;DHT22;25928;51.062;13.752;2023-05-27T06:42:45;16.70;99.90
816;DHT22;25928;51.062;13.752;2023-05-27T06:45:11;16.80;99.90
816;DHT22;25928;51.062;13.752;2023-05-27T06:47:38;17.00;99.90
816;DHT22;25928;51.062;13.752;2023-05-27T06:50:04;17.10;99.90
816;DHT22;25928;51.062;13.752;2023-05-27T06:52:30;17.10;99.90
816;DHT22;25928;51.062;13.752;2023-05-27T06:54:55;17.30;99.90
816;DHT22;25928;51.062;13.752;2023-05-27T06:57:21;17.40;99.90
816;DHT22;25928;51.062;13.752;2023-05-27T06:59:55;17.60;99.90
816;DHT22;25928;51.062;13.752;2023-05-27T07:02:20;17.50;99.90
816;DHT22;25928;51.062;13.752;2023-05-27T07:04:46;17.40;99.90
816;DHT22;25928;51.062;13.752;2023-05-27T07:07:11;17.40;99.90
816;DHT22;25928;51.062;13.752;2023-05-27T07:09:37;17.50;99.90
816;DHT22;25928;51.062;13.752;2023-05-27T07:12:03;17.30;99.90
816;DHT22;25928;51.062;13.752;2023-05-27T07:14:28;17.30;99.90
816;DHT22;25928;51.062;13.752;2023-05-27T07:16:54;17.60;99.90
816;DHT22;25928;51.062;13.752;2023-05-27T07:19:21;17.70;99.90
816;DHT22;25928;51.062;13.752;2023-05-27T07:21:47;17.80;99.90
816;DHT22;25928;51.062;13.752;2023-05-27T07:24:13;18.00;99.90
816;DHT22;25928;51.062;13.752;2023-05-27T07:26:39;18.30;99.90
816;DHT22;25928;51.062;13.752;2023-05-27T07:29:05;18.50;99.90
816;DHT22;25928;51.062;13.752;2023-05-27T07:31:31;18.50;99.90
816;DHT22;25928;51.062;13.752;2023-05-27T07:33:56;18.70;99.90
816;DHT22;25928;51.062;13.752;2023-05-27T07:36:22;18.50;99.90
816;DHT22;25928;51.062;13.752;2023-05-27T07:38:48;18.60;99.90
816;DHT22;25928;51.062;13.752;2023-05-27T07:41:13;18.90;99.90
816;DHT22;25928;51.062;13.752;2023-05-27T07:43:39;19.20;99.90
816;DHT22;25928;51.062;13.752;2023-05-27T07:46:05;18.70;99.90
816;DHT22;25928;51.062;13.752;2023-05-27T07:48:31;18.70;99.90
816;DHT22;25928;51.062;13.752;2023-05-27T07:50:57;18.60;99.90
816;DHT22;25928;51.062;13.752;2023-05-27T07:53:22;18.50;99.90
816;DHT22;25928;51.062;13.752;2023-05-27T07:55:48;18.50;99.90
816;DHT22;25928;51.062;13.752;2023-05-27T07:58:14;18.50;99.90
816;DHT22;25928;51.062;13.752;2023-05-27T08:00:40;18.70;99.90
816;DHT22;25928;51.062;13.752;2023-05-27T08:03:05;18.90;99.90
816;DHT22;25928;51.062;13.752;2023-05-27T08:05:31;19.10;99.90
816;DHT22;25928;51.062;13.752;2023-05-27T08:07:58;19.00;99.90
816;DHT22;25928;51.062;13.752;2023-05-27T08:10:23;19.00;99.90
816;DHT22;25928;51.062;13.752;2023-05-27T08:12:49;19.00;99.90
816;DHT22;25928;51.062;13.752;2023-05-27T08:15:15;18.80;99.90
816;DHT22;25928;51.062;13.752;2023-05-27T08:17:40;18.90;99.90
816;DHT22;25928;51.062;13.752;2023-05-27T08:20:08;19.10;99.90
816;DHT22;25928;51.062;13.752;2023-05-27T08:22:33;19.50;99.90
816;DHT22;25928;51.062;13.752;2023-05-27T08:24:59;19.80;99.90
816;DHT22;25928;51.062;13.752;2023-05-27T08:27:49;19.90;99.90
816;DHT22;25928;51.062;13.752;2023-05-27T08:30:16;20.20;99.90
816;DHT22;25928;51.062;13.752;2023-05-27T08:32:42;20.10;99.90
816;DHT22;25928;51.062;13.752;2023-05-27T08:35:08;20.30;99.90
816;DHT22;25928;51.062;13.752;2023-05-27T08:37:34;20.40;99.90
816;DHT22;25928;51.062;13.752;2023-05-27T08:39:59;20.40;99.90
816;DHT22;25928;51.062;13.752;2023-05-27T08:42:25;20.30;99.90
816;DHT22;25928;51.062;13.752;2023-05-27T08:44:51;20.30;99.90
816;DHT22;25928;51.062;13.752;2023-05-27T08:47:17;20.00;99.90
816;DHT22;25928;51.062;13.752;2023-05-27T08:49:43;19.70;99.90
816;DHT22;25928;51.062;13.752;2023-05-27T08:52:09;19.70;99.90
816;DHT22;25928;51.062;13.752;2023-05-27T08:54:39;19.70;99.90
816;DHT22;25928;51.062;13.752;2023-05-27T08:57:07;19.90;99.90
816;DHT22;25928;51.062;13.752;2023-05-27T08:59:35;19.80;99.90
816;DHT22;25928;51.062;13.752;2023-05-27T09:02:02;19.40;99.90
816;DHT22;25928;51.062;13.752;2023-05-27T09:04:30;19.40;99.90
816;DHT22;25928;51.062;13.752;2023-05-27T09:06:56;19.30;99.90
816;DHT22;25928;51.062;13.752;2023-05-27T09:09:21;19.60;99.90
816;DHT22;25928;51.062;13.752;2023-05-27T09:11:47;19.90;99.90
816;DHT22;25928;51.062;13.752;2023-05-27T09:14:21;20.10;99.90
816;DHT22;25928;51.062;13.752;2023-05-27T09:16:47;20.10;99.90
816;DHT22;25928;51.062;13.752;2023-05-27T09:19:20;20.20;99.90
816;DHT22;25928;51.062;13.752;2023-05-27T09:21:46;20.30;99.90
816;DHT22;25928;51.062;13.752;2023-05-27T09:24:12;20.30;99.90
816;DHT22;25928;51.062;13.752;2023-05-27T09:26:38;20.10;99.90
816;DHT22;25928;51.062;13.752;2023-05-27T09:29:07;19.90;99.90
816;DHT22;25928;51.062;13.752;2023-05-27T09:31:40;19.70;99.90
816;DHT22;25928;51.062;13.752;2023-05-27T09:34:15;19.90;99.90
816;DHT22;25928;51.062;13.752;2023-05-27T09:36:45;20.30;99.90
816;DHT22;25928;51.062;13.752;2023-05-27T09:39:15;20.20;99.90
816;DHT22;25928;51.062;13.752;2023-05-27T09:41:41;20.00;99.90
816;DHT22;25928;51.062;13.752;2023-05-27T09:44:08;19.70;99.90
816;DHT22;25928;51.062;13.752;2023-05-27T09:46:35;19.80;99.90
816;DHT22;25928;51.062;13.752;2023-05-27T09:49:01;20.00;99.90
816;DHT22;25928;51.062;13.752;2023-05-27T09:51:30;20.10;99.90
816;DHT22;25928;51.062;13.752;2023-05-27T09:53:58;20.10;99.90
816;DHT22;25928;51.062;13.752;2023-05-27T09:56:25;20.10;99.90
816;DHT22;25928;51.062;13.752;2023-05-27T09:58:56;20.20;99.90
816;DHT22;25928;51.062;13.752;2023-05-27T10:01:26;19.70;99.90
816;DHT22;25928;51.062;13.752;2023-05-27T10:03:54;19.60;99.90
816;DHT22;25928;51.062;13.752;2023-05-27T10:06:20;19.90;99.90
816;DHT22;25928;51.062;13.752;2023-05-27T10:08:47;20.00;99.90
816;DHT22;25928;51.062;13.752;2023-05-27T10:11:13;19.80;99.90
816;DHT22;25928;51.062;13.752;2023-05-27T10:13:39;20.00;99.90
816;DHT22;25928;51.062;13.752;2023-05-27T10:16:05;20.50;99.90
816;DHT22;25928;51.062;13.752;2023-05-27T10:18:31;20.80;99.90
816;DHT22;25928;51.062;13.752;2023-05-27T10:21:00;21.00;99.90
816;DHT22;25928;51.062;13.752;2023-05-27T10:23:28;21.20;99.90
816;DHT22;25928;51.062;13.752;2023-05-27T10:26:01;20.90;99.90
816;DHT22;25928;51.062;13.752;2023-05-27T10:28:38;20.80;99.90
816;DHT22;25928;51.062;13.752;2023-05-27T10:31:29;20.50;99.90
816;DHT22;25928;51.062;13.752;2023-05-27T10:33:57;20.60;99.90
816;DHT22;25928;51.062;13.752;2023-05-27T10:36:26;20.70;99.90
816;DHT22;25928;51.062;13.752;2023-05-27T10:38:55;20.70;99.90
816;DHT22;25928;51.062;13.752;2023-05-27T10:41:22;20.80;99.90
816;DHT22;25928;51.062;13.752;2023-05-27T10:43:58;20.60;99.90
816;DHT22;25928;51.062;13.752;2023-05-27T10:46:24;20.60;99.90
816;DHT22;25928;51.062;13.752;2023-05-27T10:48:50;20.70;99.90
816;DHT22;25928;51.062;13.752;2023-05-27T10:51:15;21.10;99.90
816;DHT22;25928;51.062;13.752;2023-05-27T10:53:41;21.20;99.90
816;DHT22;25928;51.062;13.752;2023-05-27T10:56:07;21.20;99.90
816;DHT22;25928;51.062;13.752;2023-05-27T10:58:35;21.10;99.90
816;DHT22;25928;51.062;13.752;2023-05-27T11:01:11;21.30;99.90
816;DHT22;25928;51.062;13.752;2023-05-27T11:03:42;21.50;99.90
816;DHT22;25928;51.062;13.752;2023-05-27T11:06:10;21.70;99.90
816;DHT22;25928;51.062;13.752;2023-05-27T11:08:36;21.80;99.90
816;DHT22;25928;51.062;13.752;2023-05-27T11:11:05;21.70;99.90
816;DHT22;25928;51.062;13.752;2023-05-27T11:13:35;21.80;99.90
816;DHT22;25928;51.062;13.752;2023-05-27T11:16:06;21.90;99.90
816;DHT22;25928;51.062;13.752;2023-05-27T11:21:09;21.80;99.90
816;DHT22;25928;51.062;13.752;2023-05-27T11:23:39;21.70;99.90
816;DHT22;25928;51.062;13.752;2023-05-27T11:26:19;21.60;99.90
816;DHT22;25928;51.062;13.752;2023-05-27T11:28:57;21.40;99.90
816;DHT22;25928;51.062;13.752;2023-05-27T11:31:30;21.20;99.90
816;DHT22;25928;51.062;13.752;2023-05-27T11:33:56;21.40;99.90
816;DHT22;25928;51.062;13.752;2023-05-27T11:36:25;21.20;99.90
816;DHT22;25928;51.062;13.752;2023-05-27T11:38:58;21.40;99.90
816;DHT22;25928;51.062;13.752;2023-05-27T11:41:25;21.60;99.90
816;DHT22;25928;51.062;13.752;2023-05-27T11:44:03;21.50;99.90
816;DHT22;25928;51.062;13.752;2023-05-27T11:46:41;21.60;99.90
816;DHT22;25928;51.062;13.752;2023-05-27T11:49:11;21.70;99.90
816;DHT22;25928;51.062;13.752;2023-05-27T11:51:48;21.70;99.90
816;DHT22;25928;51.062;13.752;2023-05-27T11:54:25;21.80;99.90
816;DHT22;25928;51.062;13.752;2023-05-27T11:56:52;21.70;99.90
816;DHT22;25928;51.062;13.752;2023-05-27T11:59:19;21.50;99.90
816;DHT22;25928;51.062;13.752;2023-05-27T12:01:45;21.40;99.90
816;DHT22;25928;51.062;13.752;2023-05-27T12:04:11;21.40;99.90
816;DHT22;25928;51.062;13.752;2023-05-27T12:06:37;21.80;99.90
816;DHT22;25928;51.062;13.752;2023-05-27T12:09:05;22.00;99.90
816;DHT22;25928;51.062;13.752;2023-05-27T12:11:32;22.00;99.90
816;DHT22;25928;51.062;13.752;2023-05-27T12:13:58;21.70;99.90
816;DHT22;25928;51.062;13.752;2023-05-27T12:16:24;21.60;99.90
816;DHT22;25928;51.062;13.752;2023-05-27T12:18:50;21.60;99.90
816;DHT22;25928;51.062;13.752;2023-05-27T12:21:16;22.10;99.90
816;DHT22;25928;51.062;13.752;2023-05-27T12:23:42;22.10;99.90
816;DHT22;25928;51.062;13.752;2023-05-27T12:26:08;22.10;99.90
816;DHT22;25928;51.062;13.752;2023-05-27T12:28:35;22.20;99.90
816;DHT22;25928;51.062;13.752;2023-05-27T12:31:00;22.30;99.90
816;DHT22;25928;51.062;13.752;2023-05-27T12:33:26;22.50;99.90
816;DHT22;25928;51.062;13.752;2023-05-27T12:35:52;22.40;99.90
816;DHT22;25928;51.062;13.752;2023-05-27T12:38:18;22.30;99.90
816;DHT22;25928;51.062;13.752;2023-05-27T12:40:44;22.40;99.90
816;DHT22;25928;51.062;13.752;2023-05-27T12:43:09;22.30;99.90
816;DHT22;25928;51.062;13.752;2023-05-27T12:45:35;22.30;99.90
816;DHT22;25928;51.062;13.752;2023-05-27T12:48:01;22.30;99.90
816;DHT22;25928;51.062;13.752;2023-05-27T12:50:27;22.20;99.90
816;DHT22;25928;51.062;13.752;2023-05-27T12:52:53;22.10;99.90
816;DHT22;25928;51.062;13.752;2023-05-27T12:55:19;22.30;99.90
816;DHT22;25928;51.062;13.752;2023-05-27T12:57:51;22.60;99.90
816;DHT22;25928;51.062;13.752;2023-05-27T13:00:17;22.70;99.90
816;DHT22;25928;51.062;13.752;2023-05-27T13:02:44;22.50;99.90
816;DHT22;25928;51.062;13.752;2023-05-27T13:05:10;22.40;99.90
816;DHT22;25928;51.062;13.752;2023-05-27T13:07:36;22.10;99.90
816;DHT22;25928;51.062;13.752;2023-05-27T13:10:06;22.30;99.90
816;DHT22;25928;51.062;13.752;2023-05-27T13:12:32;22.40;99.90
816;DHT22;25928;51.062;13.752;2023-05-27T13:14:59;22.70;99.90
816;DHT22;25928;51.062;13.752;2023-05-27T13:17:25;23.00;99.90
816;DHT22;25928;51.062;13.752;2023-05-27T13:19:51;23.10;99.90
816;DHT22;25928;51.062;13.752;2023-05-27T13:22:16;23.30;99.90
816;DHT22;25928;51.062;13.752;2023-05-27T13:24:43;23.40;99.90
816;DHT22;25928;51.062;13.752;2023-05-27T13:27:09;23.20;99.90
816;DHT22;25928;51.062;13.752;2023-05-27T13:29:35;22.90;99.90
816;DHT22;25928;51.062;13.752;2023-05-27T13:32:02;22.70;99.90
816;DHT22;25928;51.062;13.752;2023-05-27T13:34:28;22.70;99.90
816;DHT22;25928;51.062;13.752;2023-05-27T13:36:55;22.60;99.90
816;DHT22;25928;51.062;13.752;2023-05-27T13:39:21;22.40;99.90
816;DHT22;25928;51.062;13.752;2023-05-27T13:41:47;22.30;99.90
816;DHT22;25928;51.062;13.752;2023-05-27T13:44:13;22.20;99.90
816;DHT22;25928;51.062;13.752;2023-05-27T13:46:38;22.20;99.90
816;DHT22;25928;51.062;13.752;2023-05-27T13:49:04;22.30;99.90
816;DHT22;25928;51.062;13.752;2023-05-27T13:51:30;22.50;99.90
816;DHT22;25928;51.062;13.752;2023-05-27T13:53:57;22.40;99.90
816;DHT22;25928;51.062;13.752;2023-05-27T13:56:23;22.30;99.90
816;DHT22;25928;51.062;13.752;2023-05-27T13:58:53;22.20;99.90
816;DHT22;25928;51.062;13.752;2023-05-27T14:01:19;22.20;99.90
816;DHT22;25928;51.062;13.752;2023-05-27T14:03:45;22.30;99.90
816;DHT22;25928;51.062;13.752;2023-05-27T14:06:10;22.60;99.90
816;DHT22;25928;51.062;13.752;2023-05-27T14:08:36;23.50;99.90
816;DHT22;25928;51.062;13.752;2023-05-27T14:11:02;24.90;99.90
816;DHT22;25928;51.062;13.752;2023-05-27T14:13:28;26.30;99.90
816;DHT22;25928;51.062;13.752;2023-05-27T14:15:54;27.60;99.90
816;DHT22;25928;51.062;13.752;2023-05-27T14:18:19;28.00;99.90
816;DHT22;25928;51.062;13.752;2023-05-27T14:20:45;28.40;99.90
816;DHT22;25928;51.062;13.752;2023-05-27T14:23:11;29.40;99.90
816;DHT22;25928;51.062;13.752;2023-05-27T14:25:38;30.00;99.90
816;DHT22;25928;51.062;13.752;2023-05-27T14:28:04;29.40;99.90
816;DHT22;25928;51.062;13.752;2023-05-27T14:30:32;29.20;99.90
816;DHT22;25928;51.062;13.752;2023-05-27T14:33:05;27.30;99.90
816;DHT22;25928;51.062;13.752;2023-05-27T14:35:37;27.20;99.90
816;DHT22;25928;51.062;13.752;2023-05-27T14:38:04;28.50;99.90
816;DHT22;25928;51.062;13.752;2023-05-27T14:40:30;29.10;99.90
816;DHT22;25928;51.062;13.752;2023-05-27T14:42:56;29.10;99.90
816;DHT22;25928;51.062;13.752;2023-05-27T14:45:22;29.60;99.90
816;DHT22;25928;51.062;13.752;2023-05-27T14:47:51;30.70;99.90
816;DHT22;25928;51.062;13.752;2023-05-27T14:50:17;31.10;99.90
816;DHT22;25928;51.062;13.752;2023-05-27T14:52:43;31.80;99.90
816;DHT22;25928;51.062;13.752;2023-05-27T14:55:09;31.30;99.90
816;DHT22;25928;51.062;13.752;2023-05-27T14:57:35;31.40;99.90
816;DHT22;25928;51.062;13.752;2023-05-27T15:00:02;31.60;99.90
816;DHT22;25928;51.062;13.752;2023-05-27T15:02:33;31.00;99.90
816;DHT22;25928;51.062;13.752;2023-05-27T15:04:59;31.30;99.90
816;DHT22;25928;51.062;13.752;2023-05-27T15:07:25;30.80;99.90
816;DHT22;25928;51.062;13.752;2023-05-27T15:09:51;31.00;99.90
816;DHT22;25928;51.062;13.752;2023-05-27T15:12:16;31.20;99.90
816;DHT22;25928;51.062;13.752;2023-05-27T15:14:43;32.30;99.90
816;DHT22;25928;51.062;13.752;2023-05-27T15:17:08;33.20;99.90
816;DHT22;25928;51.062;13.752;2023-05-27T15:19:39;33.80;99.90
816;DHT22;25928;51.062;13.752;2023-05-27T15:22:05;33.10;99.90
816;DHT22;25928;51.062;13.752;2023-05-27T15:24:32;33.30;99.90
816;DHT22;25928;51.062;13.752;2023-05-27T15:26:58;32.60;99.90
816;DHT22;25928;51.062;13.752;2023-05-27T15:29:23;31.70;99.90
816;DHT22;25928;51.062;13.752;2023-05-27T15:31:50;31.50;99.90
816;DHT22;25928;51.062;13.752;2023-05-27T15:34:16;30.80;99.90
816;DHT22;25928;51.062;13.752;2023-05-27T15:36:41;31.50;99.90
816;DHT22;25928;51.062;13.752;2023-05-27T15:39:07;32.20;99.90
816;DHT22;25928;51.062;13.752;2023-05-27T15:41:33;33.00;99.90
816;DHT22;25928;51.062;13.752;2023-05-27T15:43:59;33.80;99.90
816;DHT22;25928;51.062;13.752;2023-05-27T15:46:25;33.20;99.90
816;DHT22;25928;51.062;13.752;2023-05-27T15:48:51;33.90;99.90
816;DHT22;25928;51.062;13.752;2023-05-27T15:51:17;34.00;99.90
816;DHT22;25928;51.062;13.752;2023-05-27T15:53:43;32.60;99.90